sensor_id;sensor_type;location;lat;lon;timestamp;pressure;altitude;pressure_sealevel;temperature;humidity
77043;BME280;65975;53.936;27.540;2023-03-01T00:00:38;99655.09;;;0.92;83.80
77043;BME280;65975;53.936;27.540;2023-03-01T00:03:04;99646.63;;;0.99;83.46
77043;BME280;65975;53.936;27.540;2023-03-01T00:05:29;99641.59;;;1.07;83.72
77043;BME280;65975;53.936;27.540;2023-03-01T00:07:56;99636.34;;;1.01;83.43
77043;BME280;65975;53.936;27.540;2023-03-01T00:10:21;99633.31;;;1.28;82.51
77043;BME280;65975;53.936;27.540;2023-03-01T00:12:47;99638.09;;;1.62;81.92
77043;BME280;65975;53.936;27.540;2023-03-01T00:15:12;99635.44;;;0.99;83.14
77043;BME280;65975;53.936;27.540;2023-03-01T00:17:38;99612.09;;;0.88;82.90
77043;BME280;65975;53.936;27.540;2023-03-01T00:20:04;99581.91;;;0.81;83.46
77043;BME280;65975;53.936;27.540;2023-03-01T00:22:33;99634.88;;;1.16;83.02
77043;BME280;65975;53.936;27.540;2023-03-01T00:24:58;99623.31;;;0.93;83.82
77043;BME280;65975;53.936;27.540;2023-03-01T00:27:24;99647.13;;;1.33;82.79
77043;BME280;65975;53.936;27.540;2023-03-01T00:29:49;99635.84;;;1.23;82.87
77043;BME280;65975;53.936;27.540;2023-03-01T00:32:14;99637.47;;;1.19;83.08
77043;BME280;65975;53.936;27.540;2023-03-01T00:34:40;99629.81;;;1.24;83.28
77043;BME280;65975;53.936;27.540;2023-03-01T00:37:05;99571.00;;;1.00;82.49
77043;BME280;65975;53.936;27.540;2023-03-01T00:39:31;99632.66;;;1.44;82.95
77043;BME280;65975;53.936;27.540;2023-03-01T00:41:59;99621.63;;;1.54;81.91
77043;BME280;65975;53.936;27.540;2023-03-01T00:44:24;99583.50;;;1.33;82.25
77043;BME280;65975;53.936;27.540;2023-03-01T00:46:50;99624.03;;;1.40;82.17
77043;BME280;65975;53.936;27.540;2023-03-01T00:49:15;99616.31;;;1.43;82.82
77043;BME280;65975;53.936;27.540;2023-03-01T00:51:41;99612.09;;;1.48;82.28
77043;BME280;65975;53.936;27.540;2023-03-01T00:54:09;99608.69;;;1.51;82.02
77043;BME280;65975;53.936;27.540;2023-03-01T00:56:35;99593.34;;;1.63;81.94
77043;BME280;65975;53.936;27.540;2023-03-01T00:59:00;99599.19;;;1.50;82.19
77043;BME280;65975;53.936;27.540;2023-03-01T01:01:28;99583.81;;;1.57;82.08
77043;BME280;65975;53.936;27.540;2023-03-01T01:04:01;99580.41;;;1.60;81.76
77043;BME280;65975;53.936;27.540;2023-03-01T01:06:29;99573.31;;;1.44;82.37
77043;BME280;65975;53.936;27.540;2023-03-01T01:08:56;99564.88;;;1.54;82.22
77043;BME280;65975;53.936;27.540;2023-03-01T01:11:23;99581.13;;;1.50;81.82
77043;BME280;65975;53.936;27.540;2023-03-01T01:13:49;99583.16;;;1.74;81.24
77043;BME280;65975;53.936;27.540;2023-03-01T01:16:17;99576.19;;;1.67;81.89
77043;BME280;65975;53.936;27.540;2023-03-01T01:18:44;99576.28;;;1.76;81.62
77043;BME280;65975;53.936;27.540;2023-03-01T01:21:13;99546.81;;;1.57;81.34
77043;BME280;65975;53.936;27.540;2023-03-01T01:23:40;99572.03;;;1.79;81.16
77043;BME280;65975;53.936;27.540;2023-03-01T01:26:20;99579.50;;;1.56;81.58
77043;BME280;65975;53.936;27.540;2023-03-01T01:28:47;99582.13;;;1.59;81.16
77043;BME280;65975;53.936;27.540;2023-03-01T01:31:12;99598.56;;;1.66;81.58
77043;BME280;65975;53.936;27.540;2023-03-01T01:33:38;99577.00;;;1.64;80.67
77043;BME280;65975;53.936;27.540;2023-03-01T01:36:05;99565.09;;;1.74;81.51
77043;BME280;65975;53.936;27.540;2023-03-01T01:38:30;99567.03;;;1.93;80.09
77043;BME280;65975;53.936;27.540;2023-03-01T01:40:56;99575.47;;;1.78;80.42
77043;BME280;65975;53.936;27.540;2023-03-01T01:43:32;99572.84;;;1.75;80.33
77043;BME280;65975;53.936;27.540;2023-03-01T01:46:04;99563.41;;;1.77;80.24
77043;BME280;65975;53.936;27.540;2023-03-01T01:48:40;99575.47;;;1.78;80.30
77043;BME280;65975;53.936;27.540;2023-03-01T01:51:11;99575.50;;;1.83;79.61
77043;BME280;65975;53.936;27.540;2023-03-01T01:53:38;99569.38;;;1.72;80.01
77043;BME280;65975;53.936;27.540;2023-03-01T01:56:07;99572.13;;;1.85;79.55
77043;BME280;65975;53.936;27.540;2023-03-01T01:58:34;99553.88;;;1.72;79.06
77043;BME280;65975;53.936;27.540;2023-03-01T02:01:01;99575.34;;;1.68;79.64
77043;BME280;65975;53.936;27.540;2023-03-01T02:03:31;99569.47;;;1.82;79.10
77043;BME280;65975;53.936;27.540;2023-03-01T02:06:12;99580.53;;;1.71;78.86
77043;BME280;65975;53.936;27.540;2023-03-01T02:08:40;99576.47;;;1.91;78.93
77043;BME280;65975;53.936;27.540;2023-03-01T02:11:07;99567.47;;;1.57;79.72
77043;BME280;65975;53.936;27.540;2023-03-01T02:13:34;99553.13;;;1.82;79.29
77043;BME280;65975;53.936;27.540;2023-03-01T02:16:05;99563.41;;;1.77;78.97
77043;BME280;65975;53.936;27.540;2023-03-01T02:18:33;99567.56;;;1.65;78.97
77043;BME280;65975;53.936;27.540;2023-03-01T02:21:08;99567.69;;;1.74;78.82
77043;BME280;65975;53.936;27.540;2023-03-01T02:23:36;99559.00;;;1.67;78.97
77043;BME280;65975;53.936;27.540;2023-03-01T02:27:03;99559.97;;;1.78;79.14
77043;BME280;65975;53.936;27.540;2023-03-01T02:29:09;99551.53;;;1.91;78.30
77043;BME280;65975;53.936;27.540;2023-03-01T02:31:35;99551.34;;;1.76;78.68
77043;BME280;65975;53.936;27.540;2023-03-01T02:34:09;99557.47;;;1.84;78.58
77043;BME280;65975;53.936;27.540;2023-03-01T02:36:38;99563.16;;;1.57;79.02
77043;BME280;65975;53.936;27.540;2023-03-01T02:39:06;99560.41;;;1.44;79.40
77043;BME280;65975;53.936;27.540;2023-03-01T02:41:37;99547.91;;;1.77;78.44
77043;BME280;65975;53.936;27.540;2023-03-01T02:44:04;99549.47;;;1.63;78.40
77043;BME280;65975;53.936;27.540;2023-03-01T02:46:29;99548.88;;;1.85;77.92
77043;BME280;65975;53.936;27.540;2023-03-01T02:48:57;99540.94;;;1.69;77.34
77043;BME280;65975;53.936;27.540;2023-03-01T02:57:00;99549.31;;;1.48;78.64
77043;BME280;65975;53.936;27.540;2023-03-01T02:59:29;99552.19;;;1.75;77.99
77043;BME280;65975;53.936;27.540;2023-03-01T03:01:56;99559.75;;;1.58;77.96
77043;BME280;65975;53.936;27.540;2023-03-01T03:04:21;99566.97;;;1.88;77.81
77043;BME280;65975;53.936;27.540;2023-03-01T03:06:49;99567.53;;;1.63;77.91
77043;BME280;65975;53.936;27.540;2023-03-01T03:09:16;99476.84;;;1.30;77.25
77043;BME280;65975;53.936;27.540;2023-03-01T03:11:42;99559.97;;;1.78;77.82
77043;BME280;65975;53.936;27.540;2023-03-01T03:14:10;99561.66;;;1.73;77.15
77043;BME280;65975;53.936;27.540;2023-03-01T03:16:42;99561.63;;;1.72;76.65
77043;BME280;65975;53.936;27.540;2023-03-01T03:19:08;99573.63;;;1.67;76.98
77043;BME280;65975;53.936;27.540;2023-03-01T03:21:34;99566.75;;;1.67;77.08
77043;BME280;65975;53.936;27.540;2023-03-01T03:24:00;99568.34;;;1.57;76.73
77043;BME280;65975;53.936;27.540;2023-03-01T03:26:26;99575.41;;;1.75;76.36
77043;BME280;65975;53.936;27.540;2023-03-01T03:28:51;99553.19;;;1.86;75.91
77043;BME280;65975;53.936;27.540;2023-03-01T03:31:17;99565.91;;;1.70;76.54
77043;BME280;65975;53.936;27.540;2023-03-01T03:33:42;99577.97;;;1.72;76.12
77043;BME280;65975;53.936;27.540;2023-03-01T03:36:08;99568.66;;;1.85;75.29
77043;BME280;65975;53.936;27.540;2023-03-01T03:38:39;99574.00;;;2.00;74.41
77043;BME280;65975;53.936;27.540;2023-03-01T03:41:06;99553.19;;;1.86;74.27
77043;BME280;65975;53.936;27.540;2023-03-01T03:43:35;99575.06;;;2.20;74.20
77043;BME280;65975;53.936;27.540;2023-03-01T03:46:01;99583.75;;;2.28;72.98
77043;BME280;65975;53.936;27.540;2023-03-01T03:48:32;99565.22;;;1.86;74.00
77043;BME280;65975;53.936;27.540;2023-03-01T03:50:58;99582.56;;;1.97;74.40
77043;BME280;65975;53.936;27.540;2023-03-01T03:53:25;99574.81;;;1.97;74.12
77043;BME280;65975;53.936;27.540;2023-03-01T03:55:51;99583.41;;;1.96;74.49
77043;BME280;65975;53.936;27.540;2023-03-01T03:58:19;99563.72;;;2.06;73.81
77043;BME280;65975;53.936;27.540;2023-03-01T04:00:47;99582.75;;;2.16;73.77
77043;BME280;65975;53.936;27.540;2023-03-01T04:03:15;99586.00;;;1.96;73.82
77043;BME280;65975;53.936;27.540;2023-03-01T04:05:41;99576.34;;;1.79;74.96
77043;BME280;65975;53.936;27.540;2023-03-01T04:08:08;99590.44;;;2.07;74.25
77043;BME280;65975;53.936;27.540;2023-03-01T04:10:36;99592.91;;;1.97;75.02
77043;BME280;65975;53.936;27.540;2023-03-01T04:13:03;99581.13;;;2.24;73.11
77043;BME280;65975;53.936;27.540;2023-03-01T04:15:30;99593.94;;;2.15;73.88
77043;BME280;65975;53.936;27.540;2023-03-01T04:17:58;99612.16;;;2.25;73.69
77043;BME280;65975;53.936;27.540;2023-03-01T04:20:27;99593.22;;;2.26;73.45
77043;BME280;65975;53.936;27.540;2023-03-01T04:22:59;99598.38;;;2.26;73.11
77043;BME280;65975;53.936;27.540;2023-03-01T04:25:25;99601.03;;;2.32;72.93
77043;BME280;65975;53.936;27.540;2023-03-01T04:27:50;99599.38;;;2.39;72.32
77043;BME280;65975;53.936;27.540;2023-03-01T04:30:16;99585.31;;;2.13;72.97
77043;BME280;65975;53.936;27.540;2023-03-01T04:32:42;99599.22;;;2.25;72.81
77043;BME280;65975;53.936;27.540;2023-03-01T04:35:08;99576.50;;;1.95;73.00
77043;BME280;65975;53.936;27.540;2023-03-01T04:37:34;99598.47;;;2.37;72.49
77043;BME280;65975;53.936;27.540;2023-03-01T04:40:01;99605.84;;;2.02;74.12
77043;BME280;65975;53.936;27.540;2023-03-01T04:42:33;99570.34;;;1.80;73.78
77043;BME280;65975;53.936;27.540;2023-03-01T04:44:58;99583.78;;;1.56;75.27
77043;BME280;65975;53.936;27.540;2023-03-01T04:47:24;99578.91;;;1.77;74.77
77043;BME280;65975;53.936;27.540;2023-03-01T04:49:49;99611.72;;;1.86;73.93
77043;BME280;65975;53.936;27.540;2023-03-01T04:52:14;99596.38;;;1.99;73.75
77043;BME280;65975;53.936;27.540;2023-03-01T04:54:40;99583.16;;;1.74;73.74
77043;BME280;65975;53.936;27.540;2023-03-01T04:57:05;99598.00;;;1.91;74.12
77043;BME280;65975;53.936;27.540;2023-03-01T04:59:31;99469.81;;;1.18;73.23
77043;BME280;65975;53.936;27.540;2023-03-01T05:01:56;99614.72;;;2.24;73.03
77043;BME280;65975;53.936;27.540;2023-03-01T05:04:23;99611.97;;;2.10;72.68
77043;BME280;65975;53.936;27.540;2023-03-01T05:06:49;99628.00;;;1.80;73.78
77043;BME280;65975;53.936;27.540;2023-03-01T05:09:15;99637.19;;;1.60;74.49
77043;BME280;65975;53.936;27.540;2023-03-01T05:11:41;99638.38;;;1.85;73.93
77043;BME280;65975;53.936;27.540;2023-03-01T05:14:08;99652.16;;;1.88;73.52
77043;BME280;65975;53.936;27.540;2023-03-01T05:16:34;99632.31;;;1.83;73.53
77043;BME280;65975;53.936;27.540;2023-03-01T05:19:01;99644.25;;;1.73;73.67
77043;BME280;65975;53.936;27.540;2023-03-01T05:21:37;99651.75;;;1.56;74.19
77043;BME280;65975;53.936;27.540;2023-03-01T05:24:23;99653.00;;;1.84;73.48
77043;BME280;65975;53.936;27.540;2023-03-01T05:26:49;99647.03;;;1.90;73.87
77043;BME280;65975;53.936;27.540;2023-03-01T05:29:18;99654.84;;;1.94;73.69
77043;BME280;65975;53.936;27.540;2023-03-01T05:31:44;99655.09;;;2.17;73.59
77043;BME280;65975;53.936;27.540;2023-03-01T05:34:09;99659.75;;;1.76;74.52
77043;BME280;65975;53.936;27.540;2023-03-01T05:36:38;99668.25;;;1.66;77.47
77043;BME280;65975;53.936;27.540;2023-03-01T05:39:03;99650.75;;;1.45;77.78
77043;BME280;65975;53.936;27.540;2023-03-01T05:41:28;99648.84;;;1.32;77.61
77043;BME280;65975;53.936;27.540;2023-03-01T05:43:54;99682.00;;;1.65;77.45
77043;BME280;65975;53.936;27.540;2023-03-01T05:46:19;99683.72;;;1.66;77.93
77043;BME280;65975;53.936;27.540;2023-03-01T05:48:45;99694.50;;;1.38;79.77
77043;BME280;65975;53.936;27.540;2023-03-01T05:51:10;99708.88;;;1.24;80.75
77043;BME280;65975;53.936;27.540;2023-03-01T05:53:37;99691.88;;;0.82;79.34
77043;BME280;65975;53.936;27.540;2023-03-01T05:56:03;99687.28;;;0.64;78.53
77043;BME280;65975;53.936;27.540;2023-03-01T05:58:29;99690.94;;;0.77;79.56
77043;BME280;65975;53.936;27.540;2023-03-01T06:00:54;99698.53;;;0.69;79.73
77043;BME280;65975;53.936;27.540;2023-03-01T06:03:20;99708.66;;;1.08;79.05
77043;BME280;65975;53.936;27.540;2023-03-01T06:05:45;99701.56;;;0.95;79.50
77043;BME280;65975;53.936;27.540;2023-03-01T06:08:12;99718.91;;;1.05;79.35
77043;BME280;65975;53.936;27.540;2023-03-01T06:10:37;99703.56;;;1.13;77.60
77043;BME280;65975;53.936;27.540;2023-03-01T06:13:03;99716.97;;;1.45;77.63
77043;BME280;65975;53.936;27.540;2023-03-01T06:15:28;99735.28;;;1.63;76.16
77043;BME280;65975;53.936;27.540;2023-03-01T06:17:55;99736.19;;;1.65;74.94
77043;BME280;65975;53.936;27.540;2023-03-01T06:20:25;99728.31;;;1.56;74.37
77043;BME280;65975;53.936;27.540;2023-03-01T06:22:51;99684.25;;;1.44;74.12
77043;BME280;65975;53.936;27.540;2023-03-01T06:25:19;99741.38;;;1.67;73.00
77043;BME280;65975;53.936;27.540;2023-03-01T06:27:46;99743.69;;;1.48;73.18
77043;BME280;65975;53.936;27.540;2023-03-01T06:30:14;99732.16;;;1.27;72.97
77043;BME280;65975;53.936;27.540;2023-03-01T06:32:40;99757.31;;;1.40;73.32
77043;BME280;65975;53.936;27.540;2023-03-01T06:35:07;99748.53;;;1.30;73.19
77043;BME280;65975;53.936;27.540;2023-03-01T06:37:33;99752.41;;;1.56;72.20
77043;BME280;65975;53.936;27.540;2023-03-01T06:39:58;99752.09;;;1.37;72.52
77043;BME280;65975;53.936;27.540;2023-03-01T06:42:24;99756.44;;;1.39;72.09
77043;BME280;65975;53.936;27.540;2023-03-01T06:44:49;99769.44;;;1.45;72.69
77043;BME280;65975;53.936;27.540;2023-03-01T06:47:15;99732.09;;;1.24;70.83
77043;BME280;65975;53.936;27.540;2023-03-01T06:49:40;99763.22;;;1.33;71.42
77043;BME280;65975;53.936;27.540;2023-03-01T06:52:06;99774.13;;;1.18;71.59
77043;BME280;65975;53.936;27.540;2023-03-01T06:54:31;99780.28;;;1.23;70.66
77043;BME280;65975;53.936;27.540;2023-03-01T06:56:57;99779.06;;;1.04;71.33
77043;BME280;65975;53.936;27.540;2023-03-01T06:59:22;99781.69;;;1.07;71.23
77043;BME280;65975;53.936;27.540;2023-03-01T07:01:48;99780.75;;;1.02;71.14
77043;BME280;65975;53.936;27.540;2023-03-01T07:04:13;99777.31;;;1.02;70.63
77043;BME280;65975;53.936;27.540;2023-03-01T07:06:39;99781.53;;;0.98;71.34
77043;BME280;65975;53.936;27.540;2023-03-01T07:09:06;99767.88;;;1.02;70.51
77043;BME280;65975;53.936;27.540;2023-03-01T07:11:32;99758.69;;;1.19;70.23
77043;BME280;65975;53.936;27.540;2023-03-01T07:13:57;99754.19;;;1.06;69.37
77043;BME280;65975;53.936;27.540;2023-03-01T07:16:23;99787.88;;;1.15;68.74
77043;BME280;65975;53.936;27.540;2023-03-01T07:18:49;99789.88;;;1.33;69.23
77043;BME280;65975;53.936;27.540;2023-03-01T07:21:14;99799.94;;;1.18;68.58
77043;BME280;65975;53.936;27.540;2023-03-01T07:23:41;99802.72;;;1.29;68.81
77043;BME280;65975;53.936;27.540;2023-03-01T07:26:07;99808.75;;;1.31;68.89
77043;BME280;65975;53.936;27.540;2023-03-01T07:28:32;99756.19;;;1.24;67.74
77043;BME280;65975;53.936;27.540;2023-03-01T07:31:03;99807.00;;;1.81;67.72
77043;BME280;65975;53.936;27.540;2023-03-01T07:33:29;99795.50;;;1.60;67.48
77043;BME280;65975;53.936;27.540;2023-03-01T07:36:02;99813.00;;;1.80;67.75
77043;BME280;65975;53.936;27.540;2023-03-01T07:38:28;99811.91;;;1.66;66.80
77043;BME280;65975;53.936;27.540;2023-03-01T07:40:58;99813.81;;;1.77;67.62
77043;BME280;65975;53.936;27.540;2023-03-01T07:43:24;99807.22;;;1.96;66.57
77043;BME280;65975;53.936;27.540;2023-03-01T07:45:49;99820.75;;;1.80;65.63
77043;BME280;65975;53.936;27.540;2023-03-01T07:48:15;99825.34;;;1.99;65.75
77043;BME280;65975;53.936;27.540;2023-03-01T07:50:40;99824.72;;;2.17;65.03
77043;BME280;65975;53.936;27.540;2023-03-01T07:53:08;99827.13;;;2.03;65.44
77043;BME280;65975;53.936;27.540;2023-03-01T07:55:36;99736.19;;;1.65;64.88
77043;BME280;65975;53.936;27.540;2023-03-01T07:58:03;99707.94;;;1.76;64.93
77043;BME280;65975;53.936;27.540;2023-03-01T08:00:29;99822.59;;;2.50;64.46
77043;BME280;65975;53.936;27.540;2023-03-01T08:02:59;99678.50;;;1.60;63.97
77043;BME280;65975;53.936;27.540;2023-03-01T08:05:25;99691.97;;;1.41;63.49
77043;BME280;65975;53.936;27.540;2023-03-01T08:07:53;99830.38;;;2.53;63.52
77043;BME280;65975;53.936;27.540;2023-03-01T08:10:21;99815.50;;;2.32;63.90
77043;BME280;65975;53.936;27.540;2023-03-01T08:12:47;99819.69;;;2.27;63.72
77043;BME280;65975;53.936;27.540;2023-03-01T08:15:12;99844.31;;;2.64;63.43
77043;BME280;65975;53.936;27.540;2023-03-01T08:17:38;99835.88;;;2.80;62.52
77043;BME280;65975;53.936;27.540;2023-03-01T08:20:04;99832.53;;;2.88;62.60
77043;BME280;65975;53.936;27.540;2023-03-01T08:22:32;99834.22;;;2.84;62.11
77043;BME280;65975;53.936;27.540;2023-03-01T08:24:57;99811.66;;;2.72;62.42
77043;BME280;65975;53.936;27.540;2023-03-01T08:27:23;99824.84;;;2.94;61.68
77043;BME280;65975;53.936;27.540;2023-03-01T08:29:48;99820.59;;;3.00;62.27
77043;BME280;65975;53.936;27.540;2023-03-01T08:32:14;99823.31;;;3.14;61.24
77043;BME280;65975;53.936;27.540;2023-03-01T08:34:39;99830.22;;;3.13;61.94
77043;BME280;65975;53.936;27.540;2023-03-01T08:37:04;99843.25;;;3.21;60.86
77043;BME280;65975;53.936;27.540;2023-03-01T08:39:30;99828.94;;;3.61;60.46
77043;BME280;65975;53.936;27.540;2023-03-01T08:41:56;99842.50;;;3.34;58.77
77043;BME280;65975;53.936;27.540;2023-03-01T08:44:22;99831.50;;;3.55;59.37
77043;BME280;65975;53.936;27.540;2023-03-01T08:46:48;99833.25;;;3.63;58.85
77043;BME280;65975;53.936;27.540;2023-03-01T08:49:17;99834.34;;;3.87;58.62
77043;BME280;65975;53.936;27.540;2023-03-01T08:51:44;99851.50;;;3.74;57.12
77043;BME280;65975;53.936;27.540;2023-03-01T08:54:13;99822.84;;;3.54;57.27
77043;BME280;65975;53.936;27.540;2023-03-01T08:56:40;99834.63;;;3.22;54.59
77043;BME280;65975;53.936;27.540;2023-03-01T08:59:06;99839.09;;;3.38;56.79
77043;BME280;65975;53.936;27.540;2023-03-01T09:01:32;99664.16;;;2.57;55.67
77043;BME280;65975;53.936;27.540;2023-03-01T09:03:57;99792.75;;;3.69;56.01
77043;BME280;65975;53.936;27.540;2023-03-01T09:06:23;99827.63;;;4.18;56.39
77043;BME280;65975;53.936;27.540;2023-03-01T09:08:49;99835.34;;;4.09;56.46
77043;BME280;65975;53.936;27.540;2023-03-01T09:11:17;99837.22;;;4.31;57.12
77043;BME280;65975;53.936;27.540;2023-03-01T09:13:44;99838.28;;;4.72;55.98
77043;BME280;65975;53.936;27.540;2023-03-01T09:16:11;99844.41;;;4.85;54.68
77043;BME280;65975;53.936;27.540;2023-03-01T09:18:37;99841.69;;;4.62;55.24
77043;BME280;65975;53.936;27.540;2023-03-01T09:21:08;99839.63;;;4.05;54.95
77043;BME280;65975;53.936;27.540;2023-03-01T09:23:35;99827.38;;;3.80;54.02
77043;BME280;65975;53.936;27.540;2023-03-01T09:26:02;99854.41;;;4.17;54.75
77043;BME280;65975;53.936;27.540;2023-03-01T09:28:28;99841.75;;;4.76;54.20
77043;BME280;65975;53.936;27.540;2023-03-01T09:30:53;99841.78;;;4.79;50.84
77043;BME280;65975;53.936;27.540;2023-03-01T09:33:22;99855.44;;;4.49;50.94
77043;BME280;65975;53.936;27.540;2023-03-01T09:35:47;99840.94;;;4.95;49.10
77043;BME280;65975;53.936;27.540;2023-03-01T09:38:13;99829.78;;;6.33;47.07
77043;BME280;65975;53.936;27.540;2023-03-01T09:40:43;99779.56;;;5.09;49.10
77043;BME280;65975;53.936;27.540;2023-03-01T09:45:59;99858.78;;;4.25;50.13
77043;BME280;65975;53.936;27.540;2023-03-01T09:48:27;99852.50;;;3.91;51.11
77043;BME280;65975;53.936;27.540;2023-03-01T09:50:54;99843.97;;;4.06;51.08
77043;BME280;65975;53.936;27.540;2023-03-01T09:53:23;99855.81;;;3.74;52.77
77043;BME280;65975;53.936;27.540;2023-03-01T09:55:55;99847.84;;;4.82;51.46
77043;BME280;65975;53.936;27.540;2023-03-01T10:01:10;99831.56;;;5.53;47.30
77043;BME280;65975;53.936;27.540;2023-03-01T10:03:43;99852.38;;;6.03;44.69
77043;BME280;65975;53.936;27.540;2023-03-01T10:06:20;99839.38;;;6.16;45.69
77043;BME280;65975;53.936;27.540;2023-03-01T10:11:23;99796.06;;;5.83;46.23
77043;BME280;65975;53.936;27.540;2023-03-01T10:19:46;99815.00;;;4.94;47.51
77043;BME280;65975;53.936;27.540;2023-03-01T10:24:49;99839.09;;;4.59;49.16
77043;BME280;65975;53.936;27.540;2023-03-01T10:30:19;99828.97;;;6.07;48.13
77043;BME280;65975;53.936;27.540;2023-03-01T10:32:49;99815.09;;;5.35;46.71
77043;BME280;65975;53.936;27.540;2023-03-01T10:35:25;99799.50;;;5.12;45.38
77043;BME280;65975;53.936;27.540;2023-03-01T10:38:17;99825.53;;;6.00;42.81
77043;BME280;65975;53.936;27.540;2023-03-01T10:40:58;99825.47;;;5.29;43.38
77043;BME280;65975;53.936;27.540;2023-03-01T10:43:25;99824.66;;;5.90;45.04
77043;BME280;65975;53.936;27.540;2023-03-01T10:45:52;99829.84;;;5.61;43.38
77043;BME280;65975;53.936;27.540;2023-03-01T10:48:19;99813.38;;;5.41;45.40
77043;BME280;65975;53.936;27.540;2023-03-01T10:56:06;99798.63;;;5.71;42.20
77043;BME280;65975;53.936;27.540;2023-03-01T10:58:33;99819.44;;;6.06;41.43
77043;BME280;65975;53.936;27.540;2023-03-01T11:01:23;99818.19;;;4.27;44.32
77043;BME280;65975;53.936;27.540;2023-03-01T11:04:21;99823.72;;;5.21;43.68
77043;BME280;65975;53.936;27.540;2023-03-01T11:06:58;99826.81;;;4.26;43.98
77043;BME280;65975;53.936;27.540;2023-03-01T11:09:24;99809.84;;;6.39;38.96
77043;BME280;65975;53.936;27.540;2023-03-01T11:11:57;99791.25;;;7.17;37.46
77043;BME280;65975;53.936;27.540;2023-03-01T11:14:24;99804.72;;;5.70;40.36
77043;BME280;65975;53.936;27.540;2023-03-01T11:19:37;99785.63;;;5.04;42.12
77043;BME280;65975;53.936;27.540;2023-03-01T11:22:18;99800.19;;;4.59;44.65
77043;BME280;65975;53.936;27.540;2023-03-01T11:24:51;99805.44;;;4.77;44.17
77043;BME280;65975;53.936;27.540;2023-03-01T11:27:22;99816.66;;;6.71;39.58
77043;BME280;65975;53.936;27.540;2023-03-01T11:35:53;99787.78;;;11.32;32.77
77043;BME280;65975;53.936;27.540;2023-03-01T11:40:53;99793.06;;;9.99;34.03
77043;BME280;65975;53.936;27.540;2023-03-01T11:43:26;99794.59;;;9.60;33.92
77043;BME280;65975;53.936;27.540;2023-03-01T11:57:08;99795.72;;;9.98;34.46
77043;BME280;65975;53.936;27.540;2023-03-01T12:08:54;99785.69;;;7.64;38.29
77043;BME280;65975;53.936;27.540;2023-03-01T12:16:35;99816.84;;;6.06;40.02
77043;BME280;65975;53.936;27.540;2023-03-01T12:19:32;99748.28;;;4.49;43.17
77043;BME280;65975;53.936;27.540;2023-03-01T12:27:35;99808.72;;;4.32;44.86
77043;BME280;65975;53.936;27.540;2023-03-01T12:38:48;99799.25;;;4.39;44.71
77043;BME280;65975;53.936;27.540;2023-03-01T12:44:11;99804.09;;;3.86;46.66
77043;BME280;65975;53.936;27.540;2023-03-01T12:49:35;99804.00;;;3.69;47.00
77043;BME280;65975;53.936;27.540;2023-03-01T12:52:15;99793.63;;;3.68;46.74
77043;BME280;65975;53.936;27.540;2023-03-01T12:54:42;99795.75;;;4.37;45.23
77043;BME280;65975;53.936;27.540;2023-03-01T13:02:44;99807.31;;;5.42;43.52
77043;BME280;65975;53.936;27.540;2023-03-01T13:07:55;99708.88;;;3.47;47.63
77043;BME280;65975;53.936;27.540;2023-03-01T13:10:42;99809.09;;;3.65;47.47
77043;BME280;65975;53.936;27.540;2023-03-01T13:15:40;99798.84;;;3.77;48.25
77043;BME280;65975;53.936;27.540;2023-03-01T13:23:13;99804.19;;;3.98;47.78
77043;BME280;65975;53.936;27.540;2023-03-01T13:26:01;99787.53;;;3.64;49.66
77043;BME280;65975;53.936;27.540;2023-03-01T13:33:50;99784.94;;;3.61;50.28
77043;BME280;65975;53.936;27.540;2023-03-01T13:44:33;99790.88;;;3.51;49.79
77043;BME280;65975;53.936;27.540;2023-03-01T13:49:47;99785.03;;;3.78;49.14
77043;BME280;65975;53.936;27.540;2023-03-01T13:52:43;99781.41;;;3.50;49.45
77043;BME280;65975;53.936;27.540;2023-03-01T13:55:26;99783.47;;;4.01;48.33
77043;BME280;65975;53.936;27.540;2023-03-01T13:57:57;99744.66;;;4.07;48.26
77043;BME280;65975;53.936;27.540;2023-03-01T14:00:37;99774.13;;;4.30;47.19
77043;BME280;65975;53.936;27.540;2023-03-01T14:03:23;99780.84;;;3.96;48.51
77043;BME280;65975;53.936;27.540;2023-03-01T14:06:13;99727.31;;;3.97;48.16
77043;BME280;65975;53.936;27.540;2023-03-01T14:08:41;99764.72;;;4.55;48.30
77043;BME280;65975;53.936;27.540;2023-03-01T14:19:28;99768.91;;;4.20;46.71
77043;BME280;65975;53.936;27.540;2023-03-01T14:22:16;99755.72;;;3.85;48.59
77043;BME280;65975;53.936;27.540;2023-03-01T14:24:51;99765.25;;;3.86;47.54
77043;BME280;65975;53.936;27.540;2023-03-01T14:27:17;99738.31;;;3.56;47.88
77043;BME280;65975;53.936;27.540;2023-03-01T14:29:44;99749.53;;;3.60;48.50
77043;BME280;65975;53.936;27.540;2023-03-01T14:32:22;99728.88;;;3.69;48.17
77043;BME280;65975;53.936;27.540;2023-03-01T14:34:50;99740.22;;;3.86;47.86
77043;BME280;65975;53.936;27.540;2023-03-01T14:37:25;99744.50;;;3.84;47.57
77043;BME280;65975;53.936;27.540;2023-03-01T14:39:52;99753.97;;;3.79;48.00
77043;BME280;65975;53.936;27.540;2023-03-01T14:42:19;99751.16;;;3.47;48.39
77043;BME280;65975;53.936;27.540;2023-03-01T14:44:48;99739.09;;;3.49;48.82
77043;BME280;65975;53.936;27.540;2023-03-01T14:47:31;99746.91;;;3.55;49.27
77043;BME280;65975;53.936;27.540;2023-03-01T14:50:00;99740.78;;;3.44;48.72
77043;BME280;65975;53.936;27.540;2023-03-01T14:52:38;99744.34;;;3.58;49.84
77043;BME280;65975;53.936;27.540;2023-03-01T14:55:07;99711.34;;;3.29;50.25
77043;BME280;65975;53.936;27.540;2023-03-01T14:57:43;99729.31;;;3.10;50.91
77043;BME280;65975;53.936;27.540;2023-03-01T15:00:15;99719.84;;;3.15;50.65
77043;BME280;65975;53.936;27.540;2023-03-01T15:02:43;99700.78;;;3.03;51.27
77043;BME280;65975;53.936;27.540;2023-03-01T15:05:09;99717.91;;;2.93;52.04
77043;BME280;65975;53.936;27.540;2023-03-01T15:07:40;99718.88;;;3.03;51.45
77043;BME280;65975;53.936;27.540;2023-03-01T15:10:16;99729.06;;;2.85;52.05
77043;BME280;65975;53.936;27.540;2023-03-01T15:12:44;99718.88;;;3.03;51.01
77043;BME280;65975;53.936;27.540;2023-03-01T15:18:04;99724.69;;;2.77;52.03